sensor_id;sensor_type;location;lat;lon;timestamp;temperature;humidity
30148;DHT22;16960;49.404;8.248;2024-01-07T00:00:29;20.80;40.40
30148;DHT22;16960;49.404;8.248;2024-01-07T00:02:56;20.80;40.40
30148;DHT22;16960;49.404;8.248;2024-01-07T00:05:23;20.80;40.40
30148;DHT22;16960;49.404;8.248;2024-01-07T00:07:51;20.80;40.40
30148;DHT22;16960;49.404;8.248;2024-01-07T00:10:18;20.80;40.40
30148;DHT22;16960;49.404;8.248;2024-01-07T00:12:45;20.80;40.40
30148;DHT22;16960;49.404;8.248;2024-01-07T00:15:13;20.80;40.40
30148;DHT22;16960;49.404;8.248;2024-01-07T00:17:40;20.80;40.40
30148;DHT22;16960;49.404;8.248;2024-01-07T00:20:08;20.80;40.40
30148;DHT22;16960;49.404;8.248;2024-01-07T00:22:36;20.80;40.30
30148;DHT22;16960;49.404;8.248;2024-01-07T00:25:04;20.80;40.30
30148;DHT22;16960;49.404;8.248;2024-01-07T00:27:31;20.80;40.40
30148;DHT22;16960;49.404;8.248;2024-01-07T00:29:58;20.80;40.30
30148;DHT22;16960;49.404;8.248;2024-01-07T00:32:25;20.80;40.30
30148;DHT22;16960;49.404;8.248;2024-01-07T00:34:52;20.80;40.40
30148;DHT22;16960;49.404;8.248;2024-01-07T00:37:19;20.80;40.40
30148;DHT22;16960;49.404;8.248;2024-01-07T00:39:46;20.90;41.20
30148;DHT22;16960;49.404;8.248;2024-01-07T00:42:14;20.80;40.30
30148;DHT22;16960;49.404;8.248;2024-01-07T00:44:41;20.80;40.30
30148;DHT22;16960;49.404;8.248;2024-01-07T00:47:08;20.80;40.40
30148;DHT22;16960;49.404;8.248;2024-01-07T00:49:35;20.80;40.40
30148;DHT22;16960;49.404;8.248;2024-01-07T00:52:02;20.80;40.40
30148;DHT22;16960;49.404;8.248;2024-01-07T00:54:29;20.80;40.40
30148;DHT22;16960;49.404;8.248;2024-01-07T00:56:56;20.80;40.40
30148;DHT22;16960;49.404;8.248;2024-01-07T00:59:24;20.80;40.40
30148;DHT22;16960;49.404;8.248;2024-01-07T01:01:51;20.80;40.40
30148;DHT22;16960;49.404;8.248;2024-01-07T01:04:18;20.80;40.40
30148;DHT22;16960;49.404;8.248;2024-01-07T01:06:45;20.80;40.50
30148;DHT22;16960;49.404;8.248;2024-01-07T01:09:12;20.80;40.40
30148;DHT22;16960;49.404;8.248;2024-01-07T01:11:39;20.80;40.40
30148;DHT22;16960;49.404;8.248;2024-01-07T01:14:06;20.70;40.50
30148;DHT22;16960;49.404;8.248;2024-01-07T01:16:34;20.80;40.40
30148;DHT22;16960;49.404;8.248;2024-01-07T01:19:01;20.70;40.50
30148;DHT22;16960;49.404;8.248;2024-01-07T01:21:28;20.70;40.50
30148;DHT22;16960;49.404;8.248;2024-01-07T01:23:55;20.70;40.50
30148;DHT22;16960;49.404;8.248;2024-01-07T01:26:22;20.70;40.60
30148;DHT22;16960;49.404;8.248;2024-01-07T01:28:49;20.70;40.60
30148;DHT22;16960;49.404;8.248;2024-01-07T01:31:15;20.70;40.60
30148;DHT22;16960;49.404;8.248;2024-01-07T01:33:44;20.70;40.70
30148;DHT22;16960;49.404;8.248;2024-01-07T01:36:11;20.60;40.60
30148;DHT22;16960;49.404;8.248;2024-01-07T01:38:37;20.60;40.70
30148;DHT22;16960;49.404;8.248;2024-01-07T01:41:04;20.60;40.70
30148;DHT22;16960;49.404;8.248;2024-01-07T01:43:31;20.60;40.60
30148;DHT22;16960;49.404;8.248;2024-01-07T01:45:58;20.70;40.70
30148;DHT22;16960;49.404;8.248;2024-01-07T01:48:26;20.70;40.70
30148;DHT22;16960;49.404;8.248;2024-01-07T01:50:55;20.60;40.60
30148;DHT22;16960;49.404;8.248;2024-01-07T01:53:24;20.60;40.60
30148;DHT22;16960;49.404;8.248;2024-01-07T01:55:52;20.60;40.70
30148;DHT22;16960;49.404;8.248;2024-01-07T01:58:19;20.60;40.70
30148;DHT22;16960;49.404;8.248;2024-01-07T02:00:47;20.60;40.70
30148;DHT22;16960;49.404;8.248;2024-01-07T02:03:16;20.60;40.70
30148;DHT22;16960;49.404;8.248;2024-01-07T02:05:43;20.60;40.70
30148;DHT22;16960;49.404;8.248;2024-01-07T02:08:12;20.60;40.70
30148;DHT22;16960;49.404;8.248;2024-01-07T02:10:39;20.60;40.70
30148;DHT22;16960;49.404;8.248;2024-01-07T02:13:06;20.60;40.70
30148;DHT22;16960;49.404;8.248;2024-01-07T02:15:33;20.60;40.70
30148;DHT22;16960;49.404;8.248;2024-01-07T02:18:00;20.60;40.70
30148;DHT22;16960;49.404;8.248;2024-01-07T02:20:27;20.60;40.70
30148;DHT22;16960;49.404;8.248;2024-01-07T02:22:54;20.60;40.70
30148;DHT22;16960;49.404;8.248;2024-01-07T02:25:24;20.60;40.60
30148;DHT22;16960;49.404;8.248;2024-01-07T02:27:51;20.60;40.60
30148;DHT22;16960;49.404;8.248;2024-01-07T02:30:18;20.60;40.60
30148;DHT22;16960;49.404;8.248;2024-01-07T02:32:45;20.60;40.50
30148;DHT22;16960;49.404;8.248;2024-01-07T02:35:12;20.60;40.50
30148;DHT22;16960;49.404;8.248;2024-01-07T02:37:39;20.60;40.50
30148;DHT22;16960;49.404;8.248;2024-01-07T02:40:07;20.70;40.60
30148;DHT22;16960;49.404;8.248;2024-01-07T02:42:35;20.60;40.50
30148;DHT22;16960;49.404;8.248;2024-01-07T02:45:03;20.60;40.40
30148;DHT22;16960;49.404;8.248;2024-01-07T02:47:30;20.60;40.40
30148;DHT22;16960;49.404;8.248;2024-01-07T02:49:57;20.60;40.50
30148;DHT22;16960;49.404;8.248;2024-01-07T02:52:24;20.60;40.50
30148;DHT22;16960;49.404;8.248;2024-01-07T02:54:51;20.60;40.40
30148;DHT22;16960;49.404;8.248;2024-01-07T02:57:17;20.60;40.40
30148;DHT22;16960;49.404;8.248;2024-01-07T02:59:46;20.60;40.40
30148;DHT22;16960;49.404;8.248;2024-01-07T03:02:13;20.60;40.40
30148;DHT22;16960;49.404;8.248;2024-01-07T03:04:40;20.60;40.40
30148;DHT22;16960;49.404;8.248;2024-01-07T03:07:07;20.60;40.40
30148;DHT22;16960;49.404;8.248;2024-01-07T03:09:33;20.60;41.10
30148;DHT22;16960;49.404;8.248;2024-01-07T03:12:00;20.60;40.40
30148;DHT22;16960;49.404;8.248;2024-01-07T03:14:27;20.60;40.40
30148;DHT22;16960;49.404;8.248;2024-01-07T03:16:55;20.60;40.40
30148;DHT22;16960;49.404;8.248;2024-01-07T03:19:22;20.60;40.50
30148;DHT22;16960;49.404;8.248;2024-01-07T03:21:49;20.60;40.50
30148;DHT22;16960;49.404;8.248;2024-01-07T03:24:16;20.60;40.60
30148;DHT22;16960;49.404;8.248;2024-01-07T03:26:45;20.60;40.60
30148;DHT22;16960;49.404;8.248;2024-01-07T03:29:12;20.60;40.60
30148;DHT22;16960;49.404;8.248;2024-01-07T03:31:39;20.50;40.70
30148;DHT22;16960;49.404;8.248;2024-01-07T03:34:07;20.60;40.70
30148;DHT22;16960;49.404;8.248;2024-01-07T03:36:34;20.60;40.70
30148;DHT22;16960;49.404;8.248;2024-01-07T03:39:01;20.60;40.70
30148;DHT22;16960;49.404;8.248;2024-01-07T03:41:28;20.50;40.70
30148;DHT22;16960;49.404;8.248;2024-01-07T03:43:55;20.50;41.00
30148;DHT22;16960;49.404;8.248;2024-01-07T03:46:22;20.50;40.70
30148;DHT22;16960;49.404;8.248;2024-01-07T03:48:49;20.50;40.70
30148;DHT22;16960;49.404;8.248;2024-01-07T03:51:17;20.50;40.70
30148;DHT22;16960;49.404;8.248;2024-01-07T03:53:44;20.50;40.70
30148;DHT22;16960;49.404;8.248;2024-01-07T03:56:11;20.50;40.70
30148;DHT22;16960;49.404;8.248;2024-01-07T03:58:38;20.50;40.70
30148;DHT22;16960;49.404;8.248;2024-01-07T04:01:05;20.50;40.70
30148;DHT22;16960;49.404;8.248;2024-01-07T04:03:32;20.50;40.70
30148;DHT22;16960;49.404;8.248;2024-01-07T04:05:58;20.50;40.70
30148;DHT22;16960;49.404;8.248;2024-01-07T04:08:27;20.50;40.70
30148;DHT22;16960;49.404;8.248;2024-01-07T04:10:54;20.50;40.70
30148;DHT22;16960;49.404;8.248;2024-01-07T04:13:21;20.50;40.70
30148;DHT22;16960;49.404;8.248;2024-01-07T04:15:47;20.50;40.70
30148;DHT22;16960;49.404;8.248;2024-01-07T04:18:14;20.50;40.70
30148;DHT22;16960;49.404;8.248;2024-01-07T04:20:41;20.50;40.70
30148;DHT22;16960;49.404;8.248;2024-01-07T04:23:08;20.50;40.70
30148;DHT22;16960;49.404;8.248;2024-01-07T04:25:37;20.50;40.70
30148;DHT22;16960;49.404;8.248;2024-01-07T04:28:04;20.40;40.70
30148;DHT22;16960;49.404;8.248;2024-01-07T04:30:31;20.50;40.80
30148;DHT22;16960;49.404;8.248;2024-01-07T04:32:58;20.40;40.70
30148;DHT22;16960;49.404;8.248;2024-01-07T04:35:25;20.50;40.80
30148;DHT22;16960;49.404;8.248;2024-01-07T04:37:52;20.50;40.80
30148;DHT22;16960;49.404;8.248;2024-01-07T04:40:19;20.40;40.70
30148;DHT22;16960;49.404;8.248;2024-01-07T04:42:47;20.40;40.70
30148;DHT22;16960;49.404;8.248;2024-01-07T04:45:14;20.40;40.60
30148;DHT22;16960;49.404;8.248;2024-01-07T04:47:41;20.40;40.60
30148;DHT22;16960;49.404;8.248;2024-01-07T04:50:08;20.40;40.60
30148;DHT22;16960;49.404;8.248;2024-01-07T04:52:35;20.40;40.60
30148;DHT22;16960;49.404;8.248;2024-01-07T04:55:02;20.40;40.60
30148;DHT22;16960;49.404;8.248;2024-01-07T04:57:29;20.40;40.60
30148;DHT22;16960;49.404;8.248;2024-01-07T04:59:57;20.40;40.60
30148;DHT22;16960;49.404;8.248;2024-01-07T05:02:24;20.40;40.60
30148;DHT22;16960;49.404;8.248;2024-01-07T05:08:31;20.40;40.50
30148;DHT22;16960;49.404;8.248;2024-01-07T05:10:58;20.40;40.50
30148;DHT22;16960;49.404;8.248;2024-01-07T05:13:25;20.40;40.50
30148;DHT22;16960;49.404;8.248;2024-01-07T05:15:53;20.40;40.50
30148;DHT22;16960;49.404;8.248;2024-01-07T05:18:21;20.40;40.50
30148;DHT22;16960;49.404;8.248;2024-01-07T05:20:48;20.40;40.50
30148;DHT22;16960;49.404;8.248;2024-01-07T05:23:14;20.40;40.50
30148;DHT22;16960;49.404;8.248;2024-01-07T05:25:43;20.40;40.50
30148;DHT22;16960;49.404;8.248;2024-01-07T05:28:10;20.40;40.50
30148;DHT22;16960;49.404;8.248;2024-01-07T05:30:37;20.40;40.40
30148;DHT22;16960;49.404;8.248;2024-01-07T05:33:06;20.40;40.40
30148;DHT22;16960;49.404;8.248;2024-01-07T05:35:49;20.40;40.40
30148;DHT22;16960;49.404;8.248;2024-01-07T05:38:16;20.40;40.40
30148;DHT22;16960;49.404;8.248;2024-01-07T05:40:43;20.40;40.40
30148;DHT22;16960;49.404;8.248;2024-01-07T05:43:10;20.40;40.40
30148;DHT22;16960;49.404;8.248;2024-01-07T05:45:37;20.40;40.40
30148;DHT22;16960;49.404;8.248;2024-01-07T05:48:06;20.40;40.40
30148;DHT22;16960;49.404;8.248;2024-01-07T05:50:32;20.40;40.40
30148;DHT22;16960;49.404;8.248;2024-01-07T05:53:00;20.50;40.50
30148;DHT22;16960;49.404;8.248;2024-01-07T05:55:27;20.50;40.50
30148;DHT22;16960;49.404;8.248;2024-01-07T05:57:53;20.50;40.50
30148;DHT22;16960;49.404;8.248;2024-01-07T06:00:20;20.50;40.50
30148;DHT22;16960;49.404;8.248;2024-01-07T06:02:48;20.50;40.40
30148;DHT22;16960;49.404;8.248;2024-01-07T06:05:17;20.50;40.40
30148;DHT22;16960;49.404;8.248;2024-01-07T06:07:44;20.60;40.40
30148;DHT22;16960;49.404;8.248;2024-01-07T06:10:10;20.60;40.40
30148;DHT22;16960;49.404;8.248;2024-01-07T06:12:37;20.60;40.40
30148;DHT22;16960;49.404;8.248;2024-01-07T06:15:05;20.60;40.30
30148;DHT22;16960;49.404;8.248;2024-01-07T06:17:32;20.60;40.30
30148;DHT22;16960;49.404;8.248;2024-01-07T06:19:59;20.60;40.30
30148;DHT22;16960;49.404;8.248;2024-01-07T06:22:27;20.70;40.30
30148;DHT22;16960;49.404;8.248;2024-01-07T06:24:54;20.60;40.20
30148;DHT22;16960;49.404;8.248;2024-01-07T06:27:21;20.60;40.20
30148;DHT22;16960;49.404;8.248;2024-01-07T06:29:48;20.60;40.20
30148;DHT22;16960;49.404;8.248;2024-01-07T06:32:14;20.60;40.20
30148;DHT22;16960;49.404;8.248;2024-01-07T06:34:41;20.60;40.20
30148;DHT22;16960;49.404;8.248;2024-01-07T06:37:08;20.60;40.30
30148;DHT22;16960;49.404;8.248;2024-01-07T06:39:37;20.60;40.30
30148;DHT22;16960;49.404;8.248;2024-01-07T06:42:05;20.60;40.40
30148;DHT22;16960;49.404;8.248;2024-01-07T06:44:32;20.60;40.40
30148;DHT22;16960;49.404;8.248;2024-01-07T06:46:58;20.60;40.40
30148;DHT22;16960;49.404;8.248;2024-01-07T06:49:25;20.60;40.50
30148;DHT22;16960;49.404;8.248;2024-01-07T06:51:52;20.70;40.60
30148;DHT22;16960;49.404;8.248;2024-01-07T06:54:19;20.70;40.60
30148;DHT22;16960;49.404;8.248;2024-01-07T06:56:48;20.70;40.60
30148;DHT22;16960;49.404;8.248;2024-01-07T06:59:15;20.70;40.50
30148;DHT22;16960;49.404;8.248;2024-01-07T07:01:41;20.80;40.40
30148;DHT22;16960;49.404;8.248;2024-01-07T07:04:08;20.80;40.40
30148;DHT22;16960;49.404;8.248;2024-01-07T07:06:35;20.80;40.40
30148;DHT22;16960;49.404;8.248;2024-01-07T07:09:02;20.80;40.40
30148;DHT22;16960;49.404;8.248;2024-01-07T07:11:29;20.80;40.30
30148;DHT22;16960;49.404;8.248;2024-01-07T07:13:57;20.80;40.30
30148;DHT22;16960;49.404;8.248;2024-01-07T07:16:25;20.80;40.30
30148;DHT22;16960;49.404;8.248;2024-01-07T07:18:52;20.80;40.30
30148;DHT22;16960;49.404;8.248;2024-01-07T07:21:19;20.80;40.30
30148;DHT22;16960;49.404;8.248;2024-01-07T07:23:46;20.80;40.30
30148;DHT22;16960;49.404;8.248;2024-01-07T07:26:13;20.80;40.30
30148;DHT22;16960;49.404;8.248;2024-01-07T07:28:40;20.80;40.20
30148;DHT22;16960;49.404;8.248;2024-01-07T07:31:08;20.90;40.30
30148;DHT22;16960;49.404;8.248;2024-01-07T07:33:38;20.80;40.20
30148;DHT22;16960;49.404;8.248;2024-01-07T07:36:05;20.80;40.20
30148;DHT22;16960;49.404;8.248;2024-01-07T07:38:32;20.80;40.20
30148;DHT22;16960;49.404;8.248;2024-01-07T07:40:59;20.80;40.20
30148;DHT22;16960;49.404;8.248;2024-01-07T07:43:26;20.80;40.20
30148;DHT22;16960;49.404;8.248;2024-01-07T07:45:54;20.80;40.30
30148;DHT22;16960;49.404;8.248;2024-01-07T07:48:22;20.80;40.40
30148;DHT22;16960;49.404;8.248;2024-01-07T07:50:50;20.80;40.40
30148;DHT22;16960;49.404;8.248;2024-01-07T07:53:17;20.80;40.40
30148;DHT22;16960;49.404;8.248;2024-01-07T07:55:44;20.90;40.80
30148;DHT22;16960;49.404;8.248;2024-01-07T07:58:11;20.90;40.70
30148;DHT22;16960;49.404;8.248;2024-01-07T08:00:38;20.80;40.70
30148;DHT22;16960;49.404;8.248;2024-01-07T08:03:05;20.90;40.80
30148;DHT22;16960;49.404;8.248;2024-01-07T08:05:33;20.90;40.80
30148;DHT22;16960;49.404;8.248;2024-01-07T08:08:00;20.90;40.70
30148;DHT22;16960;49.404;8.248;2024-01-07T08:10:27;20.90;40.70
30148;DHT22;16960;49.404;8.248;2024-01-07T08:12:57;20.90;40.70
30148;DHT22;16960;49.404;8.248;2024-01-07T08:15:24;20.90;40.60
30148;DHT22;16960;49.404;8.248;2024-01-07T08:17:51;20.90;40.60
30148;DHT22;16960;49.404;8.248;2024-01-07T08:20:18;20.90;40.60
30148;DHT22;16960;49.404;8.248;2024-01-07T08:22:47;20.90;40.60
30148;DHT22;16960;49.404;8.248;2024-01-07T08:25:14;20.90;40.70
30148;DHT22;16960;49.404;8.248;2024-01-07T08:27:41;20.90;40.70
30148;DHT22;16960;49.404;8.248;2024-01-07T08:30:10;20.90;40.80
30148;DHT22;16960;49.404;8.248;2024-01-07T08:32:37;20.90;40.70
30148;DHT22;16960;49.404;8.248;2024-01-07T08:35:05;20.90;40.70
30148;DHT22;16960;49.404;8.248;2024-01-07T08:37:32;20.90;40.70
30148;DHT22;16960;49.404;8.248;2024-01-07T08:40:00;20.90;40.70
30148;DHT22;16960;49.404;8.248;2024-01-07T08:42:27;20.90;40.80
30148;DHT22;16960;49.404;8.248;2024-01-07T08:44:55;20.90;40.80
30148;DHT22;16960;49.404;8.248;2024-01-07T08:47:22;20.90;40.80
30148;DHT22;16960;49.404;8.248;2024-01-07T08:49:49;20.90;40.80
30148;DHT22;16960;49.404;8.248;2024-01-07T08:52:19;20.90;40.80
30148;DHT22;16960;49.404;8.248;2024-01-07T08:54:45;20.90;41.00
30148;DHT22;16960;49.404;8.248;2024-01-07T08:57:14;20.90;41.00
30148;DHT22;16960;49.404;8.248;2024-01-07T08:59:41;20.90;40.90
30148;DHT22;16960;49.404;8.248;2024-01-07T09:02:08;21.00;40.90
30148;DHT22;16960;49.404;8.248;2024-01-07T09:04:35;21.00;41.20
30148;DHT22;16960;49.404;8.248;2024-01-07T09:07:02;21.00;41.00
30148;DHT22;16960;49.404;8.248;2024-01-07T09:09:29;21.00;40.90
30148;DHT22;16960;49.404;8.248;2024-01-07T09:12:07;21.00;40.80
30148;DHT22;16960;49.404;8.248;2024-01-07T09:14:37;21.00;40.60
30148;DHT22;16960;49.404;8.248;2024-01-07T09:17:04;21.00;40.60
30148;DHT22;16960;49.404;8.248;2024-01-07T09:19:31;21.00;40.60
30148;DHT22;16960;49.404;8.248;2024-01-07T09:21:58;21.00;40.60
30148;DHT22;16960;49.404;8.248;2024-01-07T09:24:24;21.00;40.70
30148;DHT22;16960;49.404;8.248;2024-01-07T09:26:52;21.00;40.60
30148;DHT22;16960;49.404;8.248;2024-01-07T09:29:18;21.10;40.70
30148;DHT22;16960;49.404;8.248;2024-01-07T09:31:47;21.10;40.60
30148;DHT22;16960;49.404;8.248;2024-01-07T09:34:14;21.10;40.60
30148;DHT22;16960;49.404;8.248;2024-01-07T09:36:41;21.10;40.50
30148;DHT22;16960;49.404;8.248;2024-01-07T09:39:08;21.10;40.50
30148;DHT22;16960;49.404;8.248;2024-01-07T09:41:35;21.20;40.50
30148;DHT22;16960;49.404;8.248;2024-01-07T09:44:03;21.20;40.40
30148;DHT22;16960;49.404;8.248;2024-01-07T09:46:32;21.10;40.40
30148;DHT22;16960;49.404;8.248;2024-01-07T09:49:00;21.20;40.40
30148;DHT22;16960;49.404;8.248;2024-01-07T09:51:29;21.20;40.40
30148;DHT22;16960;49.404;8.248;2024-01-07T09:53:59;21.20;40.50
30148;DHT22;16960;49.404;8.248;2024-01-07T09:56:34;21.20;40.40
30148;DHT22;16960;49.404;8.248;2024-01-07T09:59:02;21.20;40.50
30148;DHT22;16960;49.404;8.248;2024-01-07T10:01:30;21.20;40.40
30148;DHT22;16960;49.404;8.248;2024-01-07T10:03:59;21.20;40.40
30148;DHT22;16960;49.404;8.248;2024-01-07T10:06:26;21.20;40.30
30148;DHT22;16960;49.404;8.248;2024-01-07T10:08:53;21.20;40.20
30148;DHT22;16960;49.404;8.248;2024-01-07T10:11:21;21.20;40.20
30148;DHT22;16960;49.404;8.248;2024-01-07T10:13:48;21.20;40.20
30148;DHT22;16960;49.404;8.248;2024-01-07T10:16:16;21.20;40.20
30148;DHT22;16960;49.404;8.248;2024-01-07T10:18:43;21.20;40.10
30148;DHT22;16960;49.404;8.248;2024-01-07T10:21:12;21.20;40.10
30148;DHT22;16960;49.404;8.248;2024-01-07T10:23:39;21.20;40.10
30148;DHT22;16960;49.404;8.248;2024-01-07T10:26:05;21.20;40.10
30148;DHT22;16960;49.404;8.248;2024-01-07T10:28:32;21.20;40.10
30148;DHT22;16960;49.404;8.248;2024-01-07T10:30:59;21.20;40.10
30148;DHT22;16960;49.404;8.248;2024-01-07T10:33:31;21.20;40.10
30148;DHT22;16960;49.404;8.248;2024-01-07T10:36:02;21.20;40.00
30148;DHT22;16960;49.404;8.248;2024-01-07T10:38:32;21.10;40.00
30148;DHT22;16960;49.404;8.248;2024-01-07T10:40:59;21.10;40.00
30148;DHT22;16960;49.404;8.248;2024-01-07T10:43:29;21.10;40.00
30148;DHT22;16960;49.404;8.248;2024-01-07T10:46:00;21.20;40.00
30148;DHT22;16960;49.404;8.248;2024-01-07T10:48:30;21.10;39.90
30148;DHT22;16960;49.404;8.248;2024-01-07T10:50:59;21.10;40.00
30148;DHT22;16960;49.404;8.248;2024-01-07T10:53:30;21.20;39.90
30148;DHT22;16960;49.404;8.248;2024-01-07T10:56:04;21.10;39.90
30148;DHT22;16960;49.404;8.248;2024-01-07T10:58:32;21.10;39.90
30148;DHT22;16960;49.404;8.248;2024-01-07T11:01:00;21.10;39.90
30148;DHT22;16960;49.404;8.248;2024-01-07T11:03:36;21.10;39.90
30148;DHT22;16960;49.404;8.248;2024-01-07T11:06:11;21.10;39.90
30148;DHT22;16960;49.404;8.248;2024-01-07T11:08:46;21.10;39.90
30148;DHT22;16960;49.404;8.248;2024-01-07T11:11:21;21.10;39.80
30148;DHT22;16960;49.404;8.248;2024-01-07T11:13:50;21.10;39.80
30148;DHT22;16960;49.404;8.248;2024-01-07T11:16:41;21.10;40.10
30148;DHT22;16960;49.404;8.248;2024-01-07T11:19:08;21.10;39.80
30148;DHT22;16960;49.404;8.248;2024-01-07T11:21:35;21.10;39.80
30148;DHT22;16960;49.404;8.248;2024-01-07T11:24:02;21.10;39.80
30148;DHT22;16960;49.404;8.248;2024-01-07T11:26:31;21.00;39.70
30148;DHT22;16960;49.404;8.248;2024-01-07T11:28:58;21.00;39.70
30148;DHT22;16960;49.404;8.248;2024-01-07T11:31:44;21.00;39.70
30148;DHT22;16960;49.404;8.248;2024-01-07T11:34:38;21.00;39.70
30148;DHT22;16960;49.404;8.248;2024-01-07T11:37:09;21.00;39.70
30148;DHT22;16960;49.404;8.248;2024-01-07T11:39:36;21.00;39.70
30148;DHT22;16960;49.404;8.248;2024-01-07T11:42:05;21.00;39.80
30148;DHT22;16960;49.404;8.248;2024-01-07T11:44:34;21.00;39.70
30148;DHT22;16960;49.404;8.248;2024-01-07T11:47:03;21.00;40.30
30148;DHT22;16960;49.404;8.248;2024-01-07T11:49:31;21.00;40.30
30148;DHT22;16960;49.404;8.248;2024-01-07T11:51:58;21.00;40.20
30148;DHT22;16960;49.404;8.248;2024-01-07T11:54:25;21.00;40.10
30148;DHT22;16960;49.404;8.248;2024-01-07T11:56:52;21.00;40.00
30148;DHT22;16960;49.404;8.248;2024-01-07T11:59:20;21.00;40.00
30148;DHT22;16960;49.404;8.248;2024-01-07T12:01:47;21.00;40.00
30148;DHT22;16960;49.404;8.248;2024-01-07T12:04:14;21.00;39.90
30148;DHT22;16960;49.404;8.248;2024-01-07T12:06:41;21.00;39.90
30148;DHT22;16960;49.404;8.248;2024-01-07T12:09:12;21.00;39.80
30148;DHT22;16960;49.404;8.248;2024-01-07T12:11:39;21.10;39.90
30148;DHT22;16960;49.404;8.248;2024-01-07T12:14:06;21.10;39.80
30148;DHT22;16960;49.404;8.248;2024-01-07T12:16:35;21.10;39.80
30148;DHT22;16960;49.404;8.248;2024-01-07T12:19:02;21.10;39.80
30148;DHT22;16960;49.404;8.248;2024-01-07T12:21:29;21.10;39.70
30148;DHT22;16960;49.404;8.248;2024-01-07T12:23:57;21.10;39.70
30148;DHT22;16960;49.404;8.248;2024-01-07T12:26:26;21.10;39.60
30148;DHT22;16960;49.404;8.248;2024-01-07T12:28:54;21.20;39.60
30148;DHT22;16960;49.404;8.248;2024-01-07T12:31:23;21.20;39.60
30148;DHT22;16960;49.404;8.248;2024-01-07T12:33:51;21.20;39.60
30148;DHT22;16960;49.404;8.248;2024-01-07T12:36:20;21.20;39.50
30148;DHT22;16960;49.404;8.248;2024-01-07T12:38:48;21.20;39.50
30148;DHT22;16960;49.404;8.248;2024-01-07T12:41:15;21.20;39.50
30148;DHT22;16960;49.404;8.248;2024-01-07T12:43:42;21.20;39.50
30148;DHT22;16960;49.404;8.248;2024-01-07T12:46:09;21.20;39.40
30148;DHT22;16960;49.404;8.248;2024-01-07T12:48:36;21.20;39.40
30148;DHT22;16960;49.404;8.248;2024-01-07T12:51:04;21.20;39.40
30148;DHT22;16960;49.404;8.248;2024-01-07T12:53:31;21.20;39.40
30148;DHT22;16960;49.404;8.248;2024-01-07T12:55:58;21.30;39.70
30148;DHT22;16960;49.404;8.248;2024-01-07T12:58:25;21.30;39.40
30148;DHT22;16960;49.404;8.248;2024-01-07T13:00:52;21.30;39.40
30148;DHT22;16960;49.404;8.248;2024-01-07T13:03:19;21.30;39.40
30148;DHT22;16960;49.404;8.248;2024-01-07T13:05:47;21.30;39.40
30148;DHT22;16960;49.404;8.248;2024-01-07T13:08:17;21.30;39.30
30148;DHT22;16960;49.404;8.248;2024-01-07T13:10:44;21.30;39.30
30148;DHT22;16960;49.404;8.248;2024-01-07T13:13:11;21.30;39.30
30148;DHT22;16960;49.404;8.248;2024-01-07T13:15:38;21.30;39.30
30148;DHT22;16960;49.404;8.248;2024-01-07T13:18:06;21.30;39.30
30148;DHT22;16960;49.404;8.248;2024-01-07T13:20:33;21.30;39.80
30148;DHT22;16960;49.404;8.248;2024-01-07T13:23:01;21.30;39.20
30148;DHT22;16960;49.404;8.248;2024-01-07T13:25:31;21.30;39.20
30148;DHT22;16960;49.404;8.248;2024-01-07T13:27:58;21.30;39.20
30148;DHT22;16960;49.404;8.248;2024-01-07T13:30:25;21.30;39.20
30148;DHT22;16960;49.404;8.248;2024-01-07T13:32:52;21.30;39.20
30148;DHT22;16960;49.404;8.248;2024-01-07T13:35:22;21.30;39.20
30148;DHT22;16960;49.404;8.248;2024-01-07T13:37:50;21.30;39.20
30148;DHT22;16960;49.404;8.248;2024-01-07T13:40:19;21.30;39.20
30148;DHT22;16960;49.404;8.248;2024-01-07T13:42:47;21.30;39.20
30148;DHT22;16960;49.404;8.248;2024-01-07T13:45:17;21.30;39.20
30148;DHT22;16960;49.404;8.248;2024-01-07T13:47:46;21.30;39.20
30148;DHT22;16960;49.404;8.248;2024-01-07T13:50:13;21.20;39.10
30148;DHT22;16960;49.404;8.248;2024-01-07T13:52:40;21.20;39.10
30148;DHT22;16960;49.404;8.248;2024-01-07T13:55:08;21.20;39.10
30148;DHT22;16960;49.404;8.248;2024-01-07T13:57:36;21.20;39.20
30148;DHT22;16960;49.404;8.248;2024-01-07T14:00:05;21.20;39.20
30148;DHT22;16960;49.404;8.248;2024-01-07T14:02:35;21.20;39.20
30148;DHT22;16960;49.404;8.248;2024-01-07T14:05:04;21.20;39.20
30148;DHT22;16960;49.404;8.248;2024-01-07T14:07:32;21.20;39.30
30148;DHT22;16960;49.404;8.248;2024-01-07T14:09:59;21.20;39.30
30148;DHT22;16960;49.404;8.248;2024-01-07T14:12:28;21.20;39.30
30148;DHT22;16960;49.404;8.248;2024-01-07T14:14:55;21.20;39.30
30148;DHT22;16960;49.404;8.248;2024-01-07T14:17:23;21.20;39.30
30148;DHT22;16960;49.404;8.248;2024-01-07T14:19:50;21.20;39.40
30148;DHT22;16960;49.404;8.248;2024-01-07T14:22:19;21.20;39.40
30148;DHT22;16960;49.404;8.248;2024-01-07T14:24:46;21.20;39.30
30148;DHT22;16960;49.404;8.248;2024-01-07T14:27:14;21.20;39.30
30148;DHT22;16960;49.404;8.248;2024-01-07T14:29:41;21.20;39.20
30148;DHT22;16960;49.404;8.248;2024-01-07T14:32:08;21.20;39.20
30148;DHT22;16960;49.404;8.248;2024-01-07T14:34:39;21.20;39.20
30148;DHT22;16960;49.404;8.248;2024-01-07T14:37:07;21.30;39.30
30148;DHT22;16960;49.404;8.248;2024-01-07T14:39:35;21.30;39.30
30148;DHT22;16960;49.404;8.248;2024-01-07T14:42:02;21.30;39.30
30148;DHT22;16960;49.404;8.248;2024-01-07T14:44:30;21.30;39.20
30148;DHT22;16960;49.404;8.248;2024-01-07T14:46:57;21.30;39.20
30148;DHT22;16960;49.404;8.248;2024-01-07T14:49:24;21.30;39.20
30148;DHT22;16960;49.404;8.248;2024-01-07T14:51:52;21.30;39.10
30148;DHT22;16960;49.404;8.248;2024-01-07T14:54:19;21.30;39.10
30148;DHT22;16960;49.404;8.248;2024-01-07T14:56:46;21.30;39.10
30148;DHT22;16960;49.404;8.248;2024-01-07T14:59:13;21.30;39.10
30148;DHT22;16960;49.404;8.248;2024-01-07T15:01:40;21.30;39.10
30148;DHT22;16960;49.404;8.248;2024-01-07T15:04:09;21.30;39.10
30148;DHT22;16960;49.404;8.248;2024-01-07T15:06:40;21.30;39.00
30148;DHT22;16960;49.404;8.248;2024-01-07T15:09:09;21.30;39.00
30148;DHT22;16960;49.404;8.248;2024-01-07T15:11:38;21.20;38.90
30148;DHT22;16960;49.404;8.248;2024-01-07T15:14:07;21.30;39.00
30148;DHT22;16960;49.404;8.248;2024-01-07T15:16:35;21.30;39.00
30148;DHT22;16960;49.404;8.248;2024-01-07T15:19:02;21.20;38.90
30148;DHT22;16960;49.404;8.248;2024-01-07T15:21:29;21.20;38.90
30148;DHT22;16960;49.404;8.248;2024-01-07T15:23:56;21.20;38.80
30148;DHT22;16960;49.404;8.248;2024-01-07T15:26:25;21.20;38.80
30148;DHT22;16960;49.404;8.248;2024-01-07T15:28:52;21.20;38.80
30148;DHT22;16960;49.404;8.248;2024-01-07T15:31:19;21.20;38.80
30148;DHT22;16960;49.404;8.248;2024-01-07T15:33:45;21.20;38.80
30148;DHT22;16960;49.404;8.248;2024-01-07T15:36:12;21.30;38.90